메인 페이지
METAR-TAF:

METAR-TAF

공항 :

테구시갈파, 온두라스

위도: 14-03N, 경도: 087-13W, 고도: 994m

현재 날씨관측

예보는 41분 전, 00:00시(UTC)에 발표되었습니다.
북북동12kt
온도 18°C
습도 94%
기압 1018 hPa
시정: 6000m
고도 600ft 상공 구름 조금
고도 2600ft 상공 구름 보통
고도 8000ft 상공 구름 많음
약한비

METAR: MHTG 020000Z 03012KT 6000 -RA FEW006 SCT026 BKN080 18/17 Q1018 A3006 BECMG 7000 VCSH

시각: 18:41 (00:41 UTC)

예보

예보는 2 시간 6분 전, 22:35시(UTC)에 발표되었습니다.
예보 대상 시간: 02일 00시부터 02일 24시까지 (UTC)
8kt, 순간 최대 풍속 20kt
시정: 6000m
고도 3000ft 상공 구름 보통, 타워링 적운.
고도 8000ft 상공 구름 많음
약한비
일시적
02일 04시부터 02일 10시까지 (UTC)
6kt
시정: 5000m
고도 800ft 상공 구름 조금
고도 2400ft 상공 구름 많음
시계 내 소나기
전환 중
02일 15시부터 02일 17시까지 (UTC)
시정 10km 이상
고도 2600ft 상공 구름 보통
고도 7000ft 상공 구름 보통
일시적
02일 20시부터 02일 24시까지 (UTC)
시정: 5000m
고도 2600ft 상공 구름 보통, 타워링 적운.
고도 7000ft 상공 구름 많음

TAF: MHTG 012235Z 0200/0224 36008G20KT 6000 -RA SCT030TCU BKN080 TX25/0220Z TN17/0212Z TEMPO 0204/0210 36006KT 5000 VCSH FEW008 BKN024 BECMG 0215/0217 9999 NSW SCT026 SCT070 TEMPO 0220/0224 5000 RA SCT026TCU BKN070

4,000개 이상의 공항 관측 자료 및 예보 (METAR 및 TAF 보고).

지도상에서 검색 가능한 기상관측소가 노란 점과 빨간 점으로 표시되어 있습니다.

기상관측소 명을 보려면 표시 위로 마우스를 이동하세요.

날씨 관측과 예보를 보려면 클릭하세요.

지도 변경 : 확대하려면 엑스 표시가 있는 녹색 버튼, 축소하려면 빼기 표시가 있는 녹색 버튼, 다음 페이지의 지도를 보려면 녹색 화살표를 클릭하세요.


METAR-TAF: